Time;durP1;ratioP1;P1;durP2;ratioP2;P2;SDS_P1;SDS_P2;PMS_P1;PMS_P2;Temp;Humidity;BMP_temperature;BMP_pressure;BME280_temperature;BME280_humidity;BME280_pressure;Samples;Min_cycle;Max_cycle;Signal;HPM_P1;HPM_P2
2021/03/12 00:00:45;;;;;;;22.30;12.68;;;;;;;;;;5093636;28;20035;-18
2021/03/12 00:03:18;;;;;;;22.33;13.15;;;;;;;;;;5093314;28;20020;-18
2021/03/12 00:05:44;;;;;;;;;;;;;;;;;;5093632;28;20040;-17
2021/03/12 00:08:09;;;;;;;22.02;12.10;;;;;;;;;;5093286;28;19910;-18
2021/03/12 00:10:34;;;;;;;18.55;11.60;;;;;;;;;;5091880;28;20035;-17
2021/03/12 00:13:00;;;;;;;23.17;12.65;;;;;;;;;;5093100;28;20462;-17
2021/03/12 00:15:26;;;;;;;21.17;12.05;;;;;;;;;;5093180;28;20115;-17
2021/03/12 00:17:51;;;;;;;21.75;10.98;;;;;;;;;;5092995;28;20020;-18
2021/03/12 00:20:19;;;;;;;22.33;11.68;;;;;;;;;;5093074;28;20032;-18
2021/03/12 00:22:44;;;;;;;20.63;12.82;;;;;;;;;;5092742;28;20047;-17
2021/03/12 00:25:14;;;;;;;19.20;11.40;;;;;;;;;;5093145;28;20093;-17
2021/03/12 00:27:40;;;;;;;19.73;11.73;;;;;;;;;;5093041;28;20043;-17
2021/03/12 00:30:06;;;;;;;19.42;11.70;;;;;;;;;;5092980;28;20375;-17
2021/03/12 00:32:31;;;;;;;18.10;11.13;;;;;;;;;;5091401;28;20031;-17
2021/03/12 00:34:57;;;;;;;20.08;12.82;;;;;;;;;;5091479;28;20028;-17
2021/03/12 00:37:22;;;;;;;19.92;13.07;;;;;;;;;;5091766;28;20094;-22
2021/03/12 00:39:48;;;;;;;20.02;12.40;;;;;;;;;;5092857;28;20028;-18
2021/03/12 00:42:13;;;;;;;21.40;11.65;;;;;;;;;;5091387;28;20395;-18
2021/03/12 00:44:39;;;;;;;22.92;10.57;;;;;;;;;;5091270;28;20125;-18
2021/03/12 00:47:04;;;;;;;18.40;12.00;;;;;;;;;;5091219;28;20081;-17
2021/03/12 00:49:30;;;;;;;22.40;11.95;;;;;;;;;;5092674;28;20429;-17
2021/03/12 00:51:58;;;;;;;15.68;10.48;;;;;;;;;;5091071;28;20020;-17
2021/03/12 00:54:25;;;;;;;15.23;9.80;;;;;;;;;;5091265;28;20070;-18
2021/03/12 00:57:01;;;;;;;17.10;10.15;;;;;;;;;;5090273;28;20446;-18
2021/03/12 00:59:26;;;;;;;19.98;11.55;;;;;;;;;;5091091;28;20115;-18
2021/03/12 01:01:54;;;;;;;15.38;9.55;;;;;;;;;;5092660;28;20032;-18
2021/03/12 01:04:19;;;;;;;15.13;9.93;;;;;;;;;;5092449;28;20045;-18
2021/03/12 01:06:47;;;;;;;18.88;10.55;;;;;;;;;;5090856;28;20032;-17
2021/03/12 01:09:13;;;;;;;17.25;9.85;;;;;;;;;;5091131;28;20078;-17
2021/03/12 01:11:39;;;;;;;17.83;8.82;;;;;;;;;;5092256;28;20474;-17
2021/03/12 01:14:07;;;;;;;16.63;8.75;;;;;;;;;;5092592;28;20032;-17
2021/03/12 01:16:38;;;;;;;14.18;8.55;;;;;;;;;;5092262;28;20486;-17
2021/03/12 01:19:05;;;;;;;16.75;9.77;;;;;;;;;;5090975;28;20488;-18
2021/03/12 01:21:32;;;;;;;19.25;9.68;;;;;;;;;;5090676;28;20390;-18
2021/03/12 01:24:00;;;;;;;15.70;10.00;;;;;;;;;;5090931;28;20031;-18
2021/03/12 01:26:28;;;;;;;13.93;9.18;;;;;;;;;;5090982;28;20189;-18
2021/03/12 01:29:11;;;;;;;18.05;9.70;;;;;;;;;;5090907;28;20031;-18
2021/03/12 01:31:49;;;;;;;13.77;8.75;;;;;;;;;;5090753;28;20584;-18
2021/03/12 01:34:19;;;;;;;14.55;8.57;;;;;;;;;;5090916;28;20051;-18
2021/03/12 01:36:44;;;;;;;14.10;8.40;;;;;;;;;;5090677;28;20375;-18
2021/03/12 01:39:11;;;;;;;18.40;10.52;;;;;;;;;;5092448;28;20109;-18
2021/03/12 01:41:39;;;;;;;15.43;9.27;;;;;;;;;;5090665;28;20031;-18
2021/03/12 01:44:12;;;;;;;18.00;9.98;;;;;;;;;;5090740;28;20047;-17
2021/03/12 01:46:40;;;;;;;17.98;9.50;;;;;;;;;;5090657;28;20089;-17
2021/03/12 01:49:06;;;;;;;21.73;11.27;;;;;;;;;;5073925;28;20107;-18
2021/03/12 01:51:33;;;;;;;19.55;10.57;;;;;;;;;;5073938;28;20059;-17
2021/03/12 01:53:59;;;;;;;17.60;10.38;;;;;;;;;;5090667;28;20024;-18
2021/03/12 01:56:25;;;;;;;18.27;10.05;;;;;;;;;;5090552;28;20360;-19
2021/03/12 01:58:56;;;;;;;16.33;9.70;;;;;;;;;;5090554;28;20027;-18
2021/03/12 02:01:38;;;;;;;17.25;10.38;;;;;;;;;;5090618;28;20086;-18
2021/03/12 02:04:10;;;;;;;15.98;10.77;;;;;;;;;;5090530;28;20039;-17
2021/03/12 02:06:48;;;;;;;15.48;9.25;;;;;;;;;;5090979;28;20135;-18
2021/03/12 02:09:15;;;;;;;16.45;9.02;;;;;;;;;;5095589;28;20030;-17
2021/03/12 02:11:44;;;;;;;15.55;8.63;;;;;;;;;;5094034;28;20356;-18
2021/03/12 02:14:23;;;;;;;14.48;7.95;;;;;;;;;;5094290;28;20386;-17
2021/03/12 02:16:56;;;;;;;14.73;7.80;;;;;;;;;;5094091;28;20028;-17
2021/03/12 02:19:36;;;;;;;11.00;7.65;;;;;;;;;;5094078;28;20124;-17
2021/03/12 02:22:04;;;;;;;15.20;8.27;;;;;;;;;;5093948;28;20475;-17
2021/03/12 02:24:32;;;;;;;14.30;8.65;;;;;;;;;;5095513;28;20028;-17
2021/03/12 02:27:07;;;;;;;11.95;7.25;;;;;;;;;;5093802;28;20126;-17
2021/03/12 02:29:43;;;;;;;11.57;8.10;;;;;;;;;;5093903;28;20024;-18
2021/03/12 02:32:09;;;;;;;12.23;7.50;;;;;;;;;;5093742;28;20028;-18
2021/03/12 02:34:36;;;;;;;12.30;7.45;;;;;;;;;;5093905;28;20016;-18
2021/03/12 02:37:09;;;;;;;10.75;6.28;;;;;;;;;;5093760;28;20488;-17
2021/03/12 02:39:41;;;;;;;13.93;8.10;;;;;;;;;;5093672;28;20020;-17
2021/03/12 02:42:07;;;;;;;16.67;10.15;;;;;;;;;;5093659;28;20024;-18
2021/03/12 02:44:39;;;;;;;13.10;8.63;;;;;;;;;;5093488;28;20055;-18
2021/03/12 02:47:09;;;;;;;15.15;9.00;;;;;;;;;;5093407;28;20555;-18
2021/03/12 02:49:36;;;;;;;13.93;8.10;;;;;;;;;;5093533;28;20543;-18
2021/03/12 02:52:02;;;;;;;15.57;8.32;;;;;;;;;;5093353;28;20123;-18
2021/03/12 02:54:28;;;;;;;11.35;8.32;;;;;;;;;;5076572;28;20024;-18
2021/03/12 02:56:54;;;;;;;11.73;7.43;;;;;;;;;;5093263;28;20052;-18
2021/03/12 02:59:20;;;;;;;15.88;7.05;;;;;;;;;;5094878;28;20058;-19
2021/03/12 03:02:16;;;;;;;11.40;7.45;;;;;;;;;;5084587;28;20032;-18
2021/03/12 03:05:05;;;;;;;14.75;7.82;;;;;;;;;;5093181;28;20122;-18
2021/03/12 03:07:35;;;;;;;12.65;7.25;;;;;;;;;;5127308;27;20402;-18
2021/03/12 03:10:06;;;;;;;9.27;6.25;;;;;;;;;;5093396;28;20051;-18
2021/03/12 03:12:32;;;;;;;10.38;7.20;;;;;;;;;;5094316;28;20028;-18
2021/03/12 03:14:59;;;;;;;13.20;7.60;;;;;;;;;;5092934;28;20106;-18
2021/03/12 03:17:26;;;;;;;12.82;7.45;;;;;;;;;;5094287;28;20114;-18
2021/03/12 03:19:52;;;;;;;12.30;7.68;;;;;;;;;;5074911;28;20026;-18
2021/03/12 03:22:19;;;;;;;12.30;7.47;;;;;;;;;;5094111;28;20044;-17
2021/03/12 03:24:45;;;;;;;10.98;7.45;;;;;;;;;;5094300;28;20028;-18
2021/03/12 03:27:11;;;;;;;10.02;6.72;;;;;;;;;;5094370;28;20044;-18
2021/03/12 03:29:38;;;;;;;11.82;7.32;;;;;;;;;;5092747;28;20020;-18
2021/03/12 03:32:04;;;;;;;11.70;7.43;;;;;;;;;;5092441;28;20024;-17
2021/03/12 03:34:30;;;;;;;10.15;6.55;;;;;;;;;;5094283;28;20149;-18
2021/03/12 03:36:55;;;;;;;9.35;6.03;;;;;;;;;;5092452;28;20484;-18
2021/03/12 03:39:21;;;;;;;10.85;7.03;;;;;;;;;;5092629;28;20048;-18
2021/03/12 03:41:49;;;;;;;9.55;6.43;;;;;;;;;;5092457;28;20414;-19
2021/03/12 03:44:17;;;;;;;11.98;7.35;;;;;;;;;;5092416;28;20031;-18
2021/03/12 03:46:44;;;;;;;9.02;6.70;;;;;;;;;;5092356;28;20125;-18
2021/03/12 03:49:13;;;;;;;9.80;5.90;;;;;;;;;;5092345;28;20016;-18
2021/03/12 03:51:42;;;;;;;8.55;5.80;;;;;;;;;;5092100;28;20028;-18
2021/03/12 03:54:14;;;;;;;9.18;5.60;;;;;;;;;;5093834;28;20028;-18
2021/03/12 03:56:40;;;;;;;8.55;5.72;;;;;;;;;;5093503;28;20114;-18
2021/03/12 03:59:06;;;;;;;8.88;5.80;;;;;;;;;;5093420;28;20047;-18
2021/03/12 04:01:33;;;;;;;12.20;6.85;;;;;;;;;;5093478;28;20031;-18
2021/03/12 04:03:59;;;;;;;12.07;5.78;;;;;;;;;;5092053;28;20028;-18
2021/03/12 04:06:27;;;;;;;9.57;5.45;;;;;;;;;;5091925;28;20572;-18
2021/03/12 04:08:53;;;;;;;8.32;5.88;;;;;;;;;;5074962;28;20024;-19
2021/03/12 04:11:18;;;;;;;9.77;6.28;;;;;;;;;;5091908;28;20263;-18
2021/03/12 04:13:48;;;;;;;9.90;6.13;;;;;;;;;;5091783;28;20475;-18
2021/03/12 04:16:18;;;;;;;7.95;5.50;;;;;;;;;;5091856;28;20368;-18
2021/03/12 04:18:44;;;;;;;9.88;5.68;;;;;;;;;;5093159;28;20053;-18
2021/03/12 04:21:10;;;;;;;9.57;6.13;;;;;;;;;;5091552;28;20032;-18
2021/03/12 04:23:36;;;;;;;7.43;5.22;;;;;;;;;;5075147;28;20316;-18
2021/03/12 04:26:04;;;;;;;7.57;4.80;;;;;;;;;;5091548;28;20036;-18
2021/03/12 04:28:29;;;;;;;10.82;5.00;;;;;;;;;;5091726;28;20035;-18
2021/03/12 04:30:55;;;;;;;7.57;5.47;;;;;;;;;;5074383;28;20070;-18
2021/03/12 04:33:21;;;;;;;9.50;4.82;;;;;;;;;;5092816;28;20275;-18
2021/03/12 04:35:51;;;;;;;8.13;5.82;;;;;;;;;;5075191;28;20441;-18
2021/03/12 04:38:20;;;;;;;7.65;5.70;;;;;;;;;;5091947;28;20109;-18
2021/03/12 04:40:45;;;;;;;8.70;5.13;;;;;;;;;;5092878;28;20462;-18
2021/03/12 04:43:11;;;;;;;9.05;5.47;;;;;;;;;;5091462;28;20483;-18
2021/03/12 04:45:37;;;;;;;8.80;6.13;;;;;;;;;;5092862;28;20035;-18
2021/03/12 04:48:04;;;;;;;5.95;4.72;;;;;;;;;;5091156;28;20012;-18
2021/03/12 04:50:31;;;;;;;8.50;5.43;;;;;;;;;;5091339;28;20126;-18
2021/03/12 04:52:59;;;;;;;7.75;5.18;;;;;;;;;;5092602;28;20024;-18
2021/03/12 04:55:26;;;;;;;8.10;4.90;;;;;;;;;;5091194;28;20028;-18
2021/03/12 04:57:53;;;;;;;10.48;5.70;;;;;;;;;;5091159;28;20052;-17
2021/03/12 05:00:20;;;;;;;8.40;4.72;;;;;;;;;;5091122;28;20526;-18
2021/03/12 05:02:56;;;;;;;6.78;4.72;;;;;;;;;;5091054;28;20068;-18
2021/03/12 05:05:22;;;;;;;7.47;5.13;;;;;;;;;;5091007;28;20615;-18
2021/03/12 05:07:48;;;;;;;7.05;4.55;;;;;;;;;;5091044;28;20020;-17
2021/03/12 05:10:21;;;;;;;7.07;4.55;;;;;;;;;;5090914;28;20027;-18
2021/03/12 05:12:47;;;;;;;7.43;4.85;;;;;;;;;;5074226;28;20475;-17
2021/03/12 05:15:13;;;;;;;10.40;5.93;;;;;;;;;;5091071;28;20027;-18
2021/03/12 05:17:38;;;;;;;11.65;5.57;;;;;;;;;;5091016;28;20032;-18
2021/03/12 05:20:05;;;;;;;11.38;5.50;;;;;;;;;;5090959;28;20023;-18
2021/03/12 05:22:30;;;;;;;8.68;5.13;;;;;;;;;;5090670;28;20048;-18
2021/03/12 05:24:56;;;;;;;10.70;6.15;;;;;;;;;;5092206;28;20467;-18
2021/03/12 05:27:21;;;;;;;9.82;5.72;;;;;;;;;;5092247;28;20036;-18
2021/03/12 05:29:50;;;;;;;7.65;4.68;;;;;;;;;;5090755;28;20016;-18
2021/03/12 05:32:15;;;;;;;7.88;4.85;;;;;;;;;;5090907;28;20102;-17
2021/03/12 05:34:43;;;;;;;10.35;5.60;;;;;;;;;;5090751;28;20016;-18
2021/03/12 05:37:13;;;;;;;6.50;4.75;;;;;;;;;;5090781;28;20020;-17
2021/03/12 05:39:40;;;;;;;6.78;4.22;;;;;;;;;;5090890;28;20485;-17
2021/03/12 05:42:07;;;;;;;6.13;4.57;;;;;;;;;;5093362;28;20028;-17
2021/03/12 05:44:37;;;;;;;6.57;4.35;;;;;;;;;;5094724;28;20406;-17
2021/03/12 05:47:05;;;;;;;5.65;4.22;;;;;;;;;;5094606;28;20040;-17
2021/03/12 05:49:32;;;;;;;6.30;4.13;;;;;;;;;;5094707;28;20020;-16
2021/03/12 05:51:58;;;;;;;7.05;4.38;;;;;;;;;;5094493;28;20055;-16
2021/03/12 05:54:24;;;;;;;6.10;3.67;;;;;;;;;;5094644;28;20020;-17
2021/03/12 05:56:51;;;;;;;6.63;4.07;;;;;;;;;;5095802;28;20032;-17
2021/03/12 05:59:17;;;;;;;6.85;4.50;;;;;;;;;;5094437;28;20020;-16
2021/03/12 06:01:47;;;;;;;5.22;3.75;;;;;;;;;;5094391;28;20035;-17
2021/03/12 06:04:14;;;;;;;8.68;5.75;;;;;;;;;;5094446;28;20020;-16
2021/03/12 06:06:41;;;;;;;6.55;4.60;;;;;;;;;;5094245;28;20468;-18
2021/03/12 06:09:06;;;;;;;7.43;4.97;;;;;;;;;;5094411;28;20048;-16
2021/03/12 06:11:33;;;;;;;5.47;3.72;;;;;;;;;;5094218;28;20032;-17
2021/03/12 06:13:58;;;;;;;8.38;4.32;;;;;;;;;;5095694;28;20016;-17
2021/03/12 06:16:56;;;;;;;5.35;3.58;;;;;;;;;;5086633;28;20036;-17
2021/03/12 06:19:34;;;;;;;4.97;3.65;;;;;;;;;;5094054;28;20118;-17
2021/03/12 06:22:19;;;;;;;6.18;3.53;;;;;;;;;;5093907;28;20558;-17
2021/03/12 06:24:49;;;;;;;6.05;3.92;;;;;;;;;;5093965;28;20111;-17
2021/03/12 06:27:28;;;;;;;5.18;3.28;;;;;;;;;;5095243;28;20128;-17
2021/03/12 06:30:02;;;;;;;4.68;3.42;;;;;;;;;;5093812;28;20436;-16
2021/03/12 06:32:53;;;;;;;5.00;3.78;;;;;;;;;;5093779;28;20036;-17
2021/03/12 06:35:42;;;;;;;5.00;3.53;;;;;;;;;;5093734;28;20031;-17
2021/03/12 06:38:56;;;;;;;5.47;3.67;;;;;;;;;;5081572;28;20040;-17
2021/03/12 06:41:39;;;;;;;6.40;3.90;;;;;;;;;;5093678;28;20067;-16
2021/03/12 06:44:26;;;;;;;4.88;4.20;;;;;;;;;;5093658;28;20766;-17
2021/03/12 06:46:53;;;;;;;12.38;5.53;;;;;;;;;;5093383;28;20036;-17
2021/03/12 06:49:19;;;;;;;8.00;4.03;;;;;;;;;;5093861;28;20027;-17
2021/03/12 06:52:03;;;;;;;5.65;3.53;;;;;;;;;;5093328;28;20466;-16
2021/03/12 06:54:32;;;;;;;8.32;3.05;;;;;;;;;;5093451;28;20097;-16
2021/03/12 06:57:19;;;;;;;5.60;3.70;;;;;;;;;;5093130;28;20119;-16
2021/03/12 06:59:56;;;;;;;9.40;4.25;;;;;;;;;;5093307;28;20016;-17
2021/03/12 07:02:28;;;;;;;7.22;4.07;;;;;;;;;;5093194;28;20028;-18
2021/03/12 07:04:57;;;;;;;9.70;4.90;;;;;;;;;;5093195;28;20028;-24
2021/03/12 07:08:01;;;;;;;4.85;3.65;;;;;;;;;;5082460;28;20039;-17
2021/03/12 07:10:53;;;;;;;6.97;4.20;;;;;;;;;;5093031;28;20051;-17
2021/03/12 07:13:40;;;;;;;7.80;4.22;;;;;;;;;;5093121;28;20043;-17
2021/03/12 07:16:15;;;;;;;8.02;5.93;;;;;;;;;;5093059;28;20028;-17
2021/03/12 07:18:44;;;;;;;3.70;3.10;;;;;;;;;;5092834;28;20024;-18
2021/03/12 07:21:12;;;;;;;6.47;4.10;;;;;;;;;;5092737;28;20484;-17
2021/03/12 07:23:41;;;;;;;18.05;11.48;;;;;;;;;;5092912;28;20036;-17
2021/03/12 07:26:11;;;;;;;3.95;3.10;;;;;;;;;;5092793;28;20475;-17
2021/03/12 07:28:39;;;;;;;6.03;3.67;;;;;;;;;;5092790;28;20382;-17
2021/03/12 07:31:35;;;;;;;4.60;3.22;;;;;;;;;;5056284;28;20126;-18
2021/03/12 07:34:04;;;;;;;5.68;3.55;;;;;;;;;;5092581;28;20016;-17
2021/03/12 07:36:40;;;;;;;3.97;3.03;;;;;;;;;;5092729;28;20024;-17
2021/03/12 07:39:09;;;;;;;5.28;3.08;;;;;;;;;;5092818;28;20459;-18
2021/03/12 07:41:34;;;;;;;4.95;3.08;;;;;;;;;;5092645;28;20030;-17
2021/03/12 07:44:12;;;;;;;5.10;3.22;;;;;;;;;;5092555;28;20032;-17
2021/03/12 07:46:50;;;;;;;6.88;3.65;;;;;;;;;;5092227;28;20040;-17
2021/03/12 07:49:28;;;;;;;3.58;3.10;;;;;;;;;;5092459;28;20024;-17
2021/03/12 07:51:58;;;;;;;6.25;3.67;;;;;;;;;;5092116;28;20409;-17
2021/03/12 07:54:37;;;;;;;3.78;2.60;;;;;;;;;;5092376;28;20523;-17
2021/03/12 07:57:08;;;;;;;4.00;2.80;;;;;;;;;;5092073;28;20549;-17
2021/03/12 07:59:46;;;;;;;4.63;2.67;;;;;;;;;;5092162;28;20411;-17
2021/03/12 08:02:51;;;;;;;5.85;3.10;;;;;;;;;;5092388;28;20519;-17
2021/03/12 08:05:40;;;;;;;5.57;3.50;;;;;;;;;;5089150;28;20474;-17
2021/03/12 08:08:32;;;;;;;7.43;3.72;;;;;;;;;;5091981;28;20447;-17
2021/03/12 08:11:20;;;;;;;4.00;3.35;;;;;;;;;;5091834;28;20028;-18
2021/03/12 08:13:48;;;;;;;4.82;3.75;;;;;;;;;;5091871;28;20394;-17
2021/03/12 08:16:20;;;;;;;;;;;;;;;;;;5092347;28;20027;-17
2021/03/12 08:18:50;;;;;;;9.27;4.10;;;;;;;;;;5091781;28;20386;-17
2021/03/12 08:21:36;;;;;;;8.60;4.03;;;;;;;;;;5091547;28;20047;-17
2021/03/12 08:24:47;;;;;;;8.80;4.85;;;;;;;;;;5085344;28;20064;-17
2021/03/12 08:27:38;;;;;;;7.57;4.65;;;;;;;;;;5091560;28;20101;-17
2021/03/12 08:30:24;;;;;;;13.00;6.35;;;;;;;;;;5091680;28;20554;-16
2021/03/12 08:32:56;;;;;;;8.38;5.43;;;;;;;;;;5091514;28;20031;-17
2021/03/12 08:35:42;;;;;;;6.95;4.63;;;;;;;;;;5092398;28;20562;-16
2021/03/12 08:38:30;;;;;;;5.60;3.60;;;;;;;;;;5072941;28;20036;-17
2021/03/12 08:41:22;;;;;;;7.40;4.55;;;;;;;;;;5076379;28;20044;-17
2021/03/12 08:44:11;;;;;;;7.60;5.72;;;;;;;;;;5091348;28;20325;-16
2021/03/12 08:46:55;;;;;;;8.98;5.72;;;;;;;;;;5092518;28;20047;-17
2021/03/12 08:49:21;;;;;;;7.38;4.82;;;;;;;;;;5091364;28;20028;-17
2021/03/12 08:51:47;;;;;;;8.05;5.00;;;;;;;;;;5091218;28;20027;-17
2021/03/12 08:54:28;;;;;;;5.00;3.83;;;;;;;;;;5091371;28;20032;-17
2021/03/12 08:56:55;;;;;;;5.97;3.75;;;;;;;;;;5091179;28;20062;-17
2021/03/12 08:59:28;;;;;;;6.13;3.33;;;;;;;;;;5091208;28;20016;-17
2021/03/12 09:02:02;;;;;;;5.60;3.37;;;;;;;;;;4724068;28;9999687;-17
2021/03/12 09:04:47;;;;;;;5.38;3.85;;;;;;;;;;5066520;28;20364;-18
2021/03/12 09:07:50;;;;;;;3.63;2.90;;;;;;;;;;5067361;28;20055;-19
2021/03/12 09:10:28;;;;;;;5.35;3.45;;;;;;;;;;5067661;28;20406;-18
2021/03/12 09:13:26;;;;;;;4.53;3.30;;;;;;;;;;5053766;28;20032;-20
2021/03/12 09:15:53;;;;;;;5.22;3.03;;;;;;;;;;5067860;28;20028;-19
2021/03/12 09:18:21;;;;;;;4.68;3.42;;;;;;;;;;5072165;28;20025;-19
2021/03/12 09:20:50;;;;;;;5.80;3.30;;;;;;;;;;5073087;28;20028;-18
2021/03/12 09:23:16;;;;;;;5.32;3.42;;;;;;;;;;5071678;28;20461;-17
2021/03/12 09:25:44;;;;;;;4.90;3.78;;;;;;;;;;5070659;28;20518;-17
2021/03/12 09:28:16;;;;;;;6.50;3.80;;;;;;;;;;5071495;28;20052;-17
2021/03/12 09:30:55;;;;;;;4.25;3.20;;;;;;;;;;5071184;28;20090;-17
2021/03/12 09:33:32;;;;;;;4.90;3.28;;;;;;;;;;5071062;28;20105;-17
2021/03/12 09:36:25;;;;;;;5.30;3.78;;;;;;;;;;5070889;28;20093;-17
2021/03/12 09:38:52;;;;;;;6.38;4.10;;;;;;;;;;5070599;28;20033;-17
2021/03/12 09:41:20;;;;;;;6.13;3.47;;;;;;;;;;5072576;28;20463;-17
2021/03/12 09:44:03;;;;;;;6.57;3.35;;;;;;;;;;5072536;28;20032;-17
2021/03/12 09:46:40;;;;;;;4.70;3.28;;;;;;;;;;5071144;28;20110;-17
2021/03/12 09:49:19;;;;;;;4.65;3.60;;;;;;;;;;5070673;28;20031;-17
2021/03/12 09:51:46;;;;;;;6.28;3.58;;;;;;;;;;5070614;28;20059;-17
2021/03/12 09:54:12;;;;;;;6.45;3.63;;;;;;;;;;5072365;28;20530;-17
2021/03/12 09:56:46;;;;;;;5.60;3.88;;;;;;;;;;5070898;28;20036;-18
2021/03/12 09:59:12;;;;;;;10.27;6.20;;;;;;;;;;5070774;28;20033;-17
2021/03/12 10:01:44;;;;;;;70.80;37.65;;;;;;;;;;5080474;28;20016;-17
2021/03/12 10:04:47;;;;;;;11.15;5.75;;;;;;;;;;5070027;28;20036;-18
2021/03/12 10:07:38;;;;;;;7.65;4.75;;;;;;;;;;5092546;28;20113;-18
2021/03/12 10:10:11;;;;;;;6.25;4.05;;;;;;;;;;5091060;28;20062;-17
2021/03/12 10:12:41;;;;;;;9.43;4.30;;;;;;;;;;5090649;28;20059;-17
2021/03/12 10:15:15;;;;;;;5.75;2.95;;;;;;;;;;5090680;28;20028;-17
2021/03/12 10:18:01;;;;;;;5.35;3.85;;;;;;;;;;5090834;28;20135;-17
2021/03/12 10:20:33;;;;;;;4.68;3.40;;;;;;;;;;5085359;28;20020;-17
2021/03/12 10:23:10;;;;;;;5.43;3.72;;;;;;;;;;5090185;28;20448;-17
2021/03/12 10:25:37;;;;;;;8.00;3.58;;;;;;;;;;5091277;28;20050;-17
2021/03/12 10:28:11;;;;;;;4.63;2.85;;;;;;;;;;5091255;28;20020;-17
2021/03/12 10:30:44;;;;;;;5.50;2.90;;;;;;;;;;5091752;28;20077;-17
2021/03/12 10:33:09;;;;;;;;;;;;;;;;;;5091144;28;20039;-16
2021/03/12 10:35:36;;;;;;;5.65;3.75;;;;;;;;;;5091936;28;19904;-17
2021/03/12 10:38:04;;;;;;;4.90;3.63;;;;;;;;;;5091243;28;20486;-17
2021/03/12 10:40:40;;;;;;;8.20;4.28;;;;;;;;;;5090619;28;20360;-19
2021/03/12 10:43:09;;;;;;;6.70;3.92;;;;;;;;;;5091740;28;20028;-18
2021/03/12 10:45:35;;;;;;;9.35;3.97;;;;;;;;;;5091116;28;20030;-19
2021/03/12 10:48:04;;;;;;;6.38;3.97;;;;;;;;;;5091486;28;20784;-18
2021/03/12 10:50:31;;;;;;;7.90;4.70;;;;;;;;;;5091453;28;20070;-18
2021/03/12 10:53:04;;;;;;;6.72;3.95;;;;;;;;;;5092011;28;20024;-19
2021/03/12 10:55:37;;;;;;;6.35;4.47;;;;;;;;;;5089866;28;20493;-18
2021/03/12 10:58:03;;;;;;;11.20;6.40;;;;;;;;;;5090047;28;20047;-18
2021/03/12 11:00:29;;;;;;;9.07;5.90;;;;;;;;;;5091085;28;20470;-18
2021/03/12 11:02:59;;;;;;;10.07;5.40;;;;;;;;;;5090790;28;20032;-18
2021/03/12 11:05:25;;;;;;;6.32;4.22;;;;;;;;;;5090949;28;20428;-18
2021/03/12 11:07:51;;;;;;;6.82;3.95;;;;;;;;;;5091202;28;20042;-18
2021/03/12 11:10:17;;;;;;;5.10;3.10;;;;;;;;;;5091112;28;20375;-18
2021/03/12 11:12:44;;;;;;;4.88;3.55;;;;;;;;;;5089497;28;20127;-18
2021/03/12 11:15:11;;;;;;;6.05;3.97;;;;;;;;;;5090838;28;20047;-18
2021/03/12 11:17:37;;;;;;;6.47;3.92;;;;;;;;;;5090755;28;20454;-17
2021/03/12 11:20:06;;;;;;;6.82;4.45;;;;;;;;;;5090840;28;20534;-18
2021/03/12 11:22:33;;;;;;;5.93;4.13;;;;;;;;;;5090672;28;20048;-18
2021/03/12 11:24:58;;;;;;;9.10;5.55;;;;;;;;;;5090548;28;20032;-18
2021/03/12 11:27:24;;;;;;;9.25;4.95;;;;;;;;;;5090662;28;20047;-16
2021/03/12 11:29:50;;;;;;;7.25;4.50;;;;;;;;;;5090573;28;20016;-16
2021/03/12 11:32:16;;;;;;;7.93;4.40;;;;;;;;;;5090439;28;20083;-17
2021/03/12 11:34:41;;;;;;;5.22;3.90;;;;;;;;;;5090710;28;20055;-17
2021/03/12 11:37:07;;;;;;;6.80;3.92;;;;;;;;;;5090780;28;20036;-17
2021/03/12 11:39:33;;;;;;;7.45;4.13;;;;;;;;;;5090087;28;20433;-16
2021/03/12 11:41:58;;;;;;;8.45;4.90;;;;;;;;;;5090459;28;20120;-17
2021/03/12 11:44:24;;;;;;;5.32;4.28;;;;;;;;;;5090831;28;20049;-19
2021/03/12 11:46:49;;;;;;;6.90;4.00;;;;;;;;;;5088889;28;20047;-19
2021/03/12 11:49:14;;;;;;;6.13;4.00;;;;;;;;;;5088614;28;20019;-19
2021/03/12 11:51:40;;;;;;;5.38;3.28;;;;;;;;;;5090558;28;20039;-19
2021/03/12 11:54:06;;;;;;;6.35;3.83;;;;;;;;;;5088981;28;20027;-19
2021/03/12 11:56:32;;;;;;;6.13;3.78;;;;;;;;;;5088675;28;20032;-19
2021/03/12 11:58:58;;;;;;;6.80;3.80;;;;;;;;;;5090253;28;20020;-19
2021/03/12 12:01:23;;;;;;;5.13;4.03;;;;;;;;;;5082057;28;20836;-18
2021/03/12 12:03:48;;;;;;;7.82;4.57;;;;;;;;;;5069681;28;20020;-19
2021/03/12 12:06:14;;;;;;;4.97;3.85;;;;;;;;;;5068622;28;20506;-19
2021/03/12 12:08:41;;;;;;;7.00;4.05;;;;;;;;;;5069843;28;20432;-19
2021/03/12 12:11:06;;;;;;;4.15;3.63;;;;;;;;;;5069429;28;20032;-17
2021/03/12 12:13:32;;;;;;;7.38;3.78;;;;;;;;;;5069427;28;20028;-19
2021/03/12 12:15:57;;;;;;;6.63;3.10;;;;;;;;;;5068205;28;20043;-19
2021/03/12 12:18:23;;;;;;;6.43;3.55;;;;;;;;;;5069404;28;20150;-17
2021/03/12 12:20:48;;;;;;;5.32;3.25;;;;;;;;;;5069559;28;20509;-19
2021/03/12 12:23:14;;;;;;;4.85;3.35;;;;;;;;;;5069488;28;20048;-16
2021/03/12 12:25:39;;;;;;;7.80;3.08;;;;;;;;;;5068994;28;20036;-17
2021/03/12 12:28:06;;;;;;;5.68;4.40;;;;;;;;;;5069358;28;20060;-17
2021/03/12 12:30:32;;;;;;;4.70;3.40;;;;;;;;;;5069538;28;20031;-17
2021/03/12 12:32:57;;;;;;;4.82;3.58;;;;;;;;;;5069091;28;20032;-17
2021/03/12 12:35:23;;;;;;;4.78;3.53;;;;;;;;;;5069318;28;20111;-17
2021/03/12 12:37:52;;;;;;;5.60;3.88;;;;;;;;;;5068676;28;20063;-17
2021/03/12 12:40:20;;;;;;;4.22;3.08;;;;;;;;;;5069108;28;20036;-17
2021/03/12 12:42:46;;;;;;;6.25;3.90;;;;;;;;;;5069077;28;20762;-16
2021/03/12 12:45:11;;;;;;;4.15;2.80;;;;;;;;;;5069108;28;20104;-18
2021/03/12 12:47:37;;;;;;;3.95;3.03;;;;;;;;;;5069355;28;20029;-17
2021/03/12 12:50:03;;;;;;;6.20;4.07;;;;;;;;;;5068475;28;20582;-17
2021/03/12 12:52:29;;;;;;;6.32;3.85;;;;;;;;;;5067819;28;20020;-17
2021/03/12 12:54:54;;;;;;;9.63;4.25;;;;;;;;;;5068901;28;20070;-17
2021/03/12 12:57:21;;;;;;;5.88;4.03;;;;;;;;;;5069072;28;20074;-16
2021/03/12 12:59:47;;;;;;;6.35;4.30;;;;;;;;;;5068895;28;20043;-16
2021/03/12 13:02:12;;;;;;;6.63;4.13;;;;;;;;;;5081477;28;20020;-17
2021/03/12 13:04:38;;;;;;;3.60;2.80;;;;;;;;;;5087851;28;20138;-19
2021/03/12 13:07:03;;;;;;;5.03;3.30;;;;;;;;;;5070852;28;20035;-17
2021/03/12 13:09:29;;;;;;;5.97;3.92;;;;;;;;;;5089168;28;20039;-17
2021/03/12 13:11:54;;;;;;;7.65;5.20;;;;;;;;;;5089210;28;20029;-17
2021/03/12 13:14:20;;;;;;;9.00;4.95;;;;;;;;;;5088904;28;20359;-17
2021/03/12 13:16:45;;;;;;;7.03;4.55;;;;;;;;;;5089184;28;20107;-17
2021/03/12 13:19:11;;;;;;;7.45;4.15;;;;;;;;;;5087329;28;20101;-17
2021/03/12 13:21:36;;;;;;;6.38;4.45;;;;;;;;;;5088597;28;20047;-17
2021/03/12 13:24:02;;;;;;;5.53;3.70;;;;;;;;;;5089110;28;20077;-17
2021/03/12 13:26:27;;;;;;;5.95;4.00;;;;;;;;;;5088596;28;20084;-18
2021/03/12 13:28:53;;;;;;;5.75;4.32;;;;;;;;;;5088985;28;20020;-17
2021/03/12 13:31:18;;;;;;;11.57;6.25;;;;;;;;;;5087518;28;20020;-18
2021/03/12 13:33:44;;;;;;;24.60;6.63;;;;;;;;;;5088679;28;20024;-17
2021/03/12 13:36:09;;;;;;;32.10;12.30;;;;;;;;;;5088805;28;20382;-17
2021/03/12 13:38:35;;;;;;;34.22;8.93;;;;;;;;;;5087314;28;20024;-16
2021/03/12 13:41:00;;;;;;;62.53;14.98;;;;;;;;;;5088315;28;20807;-17
2021/03/12 13:43:27;;;;;;;64.22;13.93;;;;;;;;;;5088750;28;20023;-17
2021/03/12 13:45:53;;;;;;;56.63;11.82;;;;;;;;;;5088660;28;20077;-17
2021/03/12 13:48:19;;;;;;;25.13;11.02;;;;;;;;;;5088506;28;20624;-17
2021/03/12 13:50:45;;;;;;;39.03;13.23;;;;;;;;;;5088037;28;20016;-17
2021/03/12 13:53:11;;;;;;;44.17;10.05;;;;;;;;;;5088543;28;20032;-17
2021/03/12 13:55:36;;;;;;;29.05;11.25;;;;;;;;;;5088648;28;20016;-17
2021/03/12 13:58:02;;;;;;;59.17;10.98;;;;;;;;;;5087428;28;20032;-17
2021/03/12 14:00:27;;;;;;;63.88;12.43;;;;;;;;;;5087973;28;20455;-17
2021/03/12 14:02:53;;;;;;;17.95;6.93;;;;;;;;;;5070089;28;20107;-18
2021/03/12 14:05:19;;;;;;;20.33;8.90;;;;;;;;;;5071770;28;20052;-19
2021/03/12 14:07:44;;;;;;;17.73;8.20;;;;;;;;;;5076462;28;20043;-18
2021/03/12 14:10:12;;;;;;;35.42;12.38;;;;;;;;;;5092020;28;20036;-17
2021/03/12 14:12:38;;;;;;;29.13;7.65;;;;;;;;;;5091609;28;20043;-18
2021/03/12 14:15:22;;;;;;;20.25;8.63;;;;;;;;;;5092228;28;20088;-18
2021/03/12 14:17:47;;;;;;;21.73;6.78;;;;;;;;;;5092067;28;20036;-18
2021/03/12 14:20:13;;;;;;;21.58;8.75;;;;;;;;;;5090556;28;20023;-18
2021/03/12 14:22:38;;;;;;;11.50;5.65;;;;;;;;;;5092045;28;20048;-18
2021/03/12 14:25:04;;;;;;;16.10;8.25;;;;;;;;;;5091471;28;20112;-18
2021/03/12 14:27:32;;;;;;;16.02;7.70;;;;;;;;;;5091479;28;20688;-18
2021/03/12 14:30:16;;;;;;;11.52;5.30;;;;;;;;;;5092213;28;20070;-18
2021/03/12 14:32:41;;;;;;;16.67;6.78;;;;;;;;;;5091867;28;20051;-18
2021/03/12 14:35:07;;;;;;;18.15;7.60;;;;;;;;;;5091628;28;20047;-18
2021/03/12 14:37:32;;;;;;;14.68;6.47;;;;;;;;;;5090930;28;20080;-18
2021/03/12 14:39:58;;;;;;;15.90;7.32;;;;;;;;;;5091444;28;20020;-18
2021/03/12 14:42:23;;;;;;;12.55;4.20;;;;;;;;;;5091859;28;20048;-18
2021/03/12 14:44:48;;;;;;;11.15;5.50;;;;;;;;;;5091583;28;20054;-17
2021/03/12 14:47:18;;;;;;;7.65;4.68;;;;;;;;;;5076523;28;20044;-18
2021/03/12 14:49:48;;;;;;;9.88;4.35;;;;;;;;;;5069898;28;20016;-17
2021/03/12 14:52:15;;;;;;;19.05;6.00;;;;;;;;;;5069321;28;20043;-18
2021/03/12 14:54:42;;;;;;;9.02;5.20;;;;;;;;;;5069544;28;20027;-17
2021/03/12 14:57:08;;;;;;;21.73;7.28;;;;;;;;;;5068787;28;20032;-17